sensor_id;sensor_type;location;lat;lon;timestamp;temperature;humidity
7920;DHT22;18778;47.610;9.776;2023-02-22T00:00:48;1.60;99.90
7920;DHT22;18778;47.610;9.776;2023-02-22T00:03:17;1.50;99.90
7920;DHT22;18778;47.610;9.776;2023-02-22T00:05:48;1.50;99.90
7920;DHT22;18778;47.610;9.776;2023-02-22T00:08:18;1.50;99.90
7920;DHT22;18778;47.610;9.776;2023-02-22T00:10:44;1.40;99.90
7920;DHT22;18778;47.610;9.776;2023-02-22T00:13:12;1.50;99.90
7920;DHT22;18778;47.610;9.776;2023-02-22T00:15:39;1.30;99.90
7920;DHT22;18778;47.610;9.776;2023-02-22T00:18:12;1.30;99.90
7920;DHT22;18778;47.610;9.776;2023-02-22T00:20:39;1.50;99.90
7920;DHT22;18778;47.610;9.776;2023-02-22T00:23:12;1.40;99.90
7920;DHT22;18778;47.610;9.776;2023-02-22T00:25:38;1.30;99.90
7920;DHT22;18778;47.610;9.776;2023-02-22T00:28:04;1.20;99.90
7920;DHT22;18778;47.610;9.776;2023-02-22T00:30:30;1.30;99.90
7920;DHT22;18778;47.610;9.776;2023-02-22T00:32:57;1.40;99.90
7920;DHT22;18778;47.610;9.776;2023-02-22T00:35:25;1.40;99.90
7920;DHT22;18778;47.610;9.776;2023-02-22T00:37:58;1.30;99.90
7920;DHT22;18778;47.610;9.776;2023-02-22T00:40:28;1.40;99.90
7920;DHT22;18778;47.610;9.776;2023-02-22T00:42:55;1.20;99.90
7920;DHT22;18778;47.610;9.776;2023-02-22T00:45:22;0.90;99.90
7920;DHT22;18778;47.610;9.776;2023-02-22T00:47:49;0.80;99.90
7920;DHT22;18778;47.610;9.776;2023-02-22T00:50:16;0.80;99.90
7920;DHT22;18778;47.610;9.776;2023-02-22T00:52:43;0.60;99.90
7920;DHT22;18778;47.610;9.776;2023-02-22T00:55:14;0.60;99.90
7920;DHT22;18778;47.610;9.776;2023-02-22T00:57:41;0.90;99.90
7920;DHT22;18778;47.610;9.776;2023-02-22T01:00:08;1.00;99.90
7920;DHT22;18778;47.610;9.776;2023-02-22T01:02:38;1.10;99.90
7920;DHT22;18778;47.610;9.776;2023-02-22T01:05:10;1.00;99.90
7920;DHT22;18778;47.610;9.776;2023-02-22T01:07:39;1.20;99.90
7920;DHT22;18778;47.610;9.776;2023-02-22T01:10:06;1.40;99.90
7920;DHT22;18778;47.610;9.776;2023-02-22T01:12:33;1.50;99.90
7920;DHT22;18778;47.610;9.776;2023-02-22T01:14:59;1.40;99.90
7920;DHT22;18778;47.610;9.776;2023-02-22T01:17:25;1.40;99.90
7920;DHT22;18778;47.610;9.776;2023-02-22T01:19:51;1.40;99.90
7920;DHT22;18778;47.610;9.776;2023-02-22T01:22:18;1.50;99.90
7920;DHT22;18778;47.610;9.776;2023-02-22T01:24:44;1.40;99.90
7920;DHT22;18778;47.610;9.776;2023-02-22T01:27:10;1.40;99.90
7920;DHT22;18778;47.610;9.776;2023-02-22T01:29:36;1.40;99.90
7920;DHT22;18778;47.610;9.776;2023-02-22T01:32:03;1.40;99.90
7920;DHT22;18778;47.610;9.776;2023-02-22T01:34:31;1.40;99.90
7920;DHT22;18778;47.610;9.776;2023-02-22T01:36:57;1.20;99.90
7920;DHT22;18778;47.610;9.776;2023-02-22T01:39:23;1.30;99.90
7920;DHT22;18778;47.610;9.776;2023-02-22T01:41:49;1.20;99.90
7920;DHT22;18778;47.610;9.776;2023-02-22T01:44:18;1.20;99.90
7920;DHT22;18778;47.610;9.776;2023-02-22T01:46:44;1.10;99.90
7920;DHT22;18778;47.610;9.776;2023-02-22T01:49:10;1.00;99.90
7920;DHT22;18778;47.610;9.776;2023-02-22T01:51:40;1.00;99.90
7920;DHT22;18778;47.610;9.776;2023-02-22T01:54:15;1.00;99.90
7920;DHT22;18778;47.610;9.776;2023-02-22T01:56:47;1.10;99.90
7920;DHT22;18778;47.610;9.776;2023-02-22T01:59:16;0.90;99.90
7920;DHT22;18778;47.610;9.776;2023-02-22T02:01:42;1.00;99.90
7920;DHT22;18778;47.610;9.776;2023-02-22T02:04:16;1.10;99.90
7920;DHT22;18778;47.610;9.776;2023-02-22T02:06:44;1.20;99.90
7920;DHT22;18778;47.610;9.776;2023-02-22T02:09:27;1.20;99.90
7920;DHT22;18778;47.610;9.776;2023-02-22T02:11:56;1.30;99.90
7920;DHT22;18778;47.610;9.776;2023-02-22T02:14:22;1.20;99.90
7920;DHT22;18778;47.610;9.776;2023-02-22T02:16:50;1.10;99.90
7920;DHT22;18778;47.610;9.776;2023-02-22T02:24:59;1.10;99.90
7920;DHT22;18778;47.610;9.776;2023-02-22T02:30:36;1.00;99.90
7920;DHT22;18778;47.610;9.776;2023-02-22T02:33:36;1.00;99.90
7920;DHT22;18778;47.610;9.776;2023-02-22T02:38:46;0.80;99.90
7920;DHT22;18778;47.610;9.776;2023-02-22T02:41:29;0.60;99.90
7920;DHT22;18778;47.610;9.776;2023-02-22T02:44:03;0.40;99.90
7920;DHT22;18778;47.610;9.776;2023-02-22T02:46:36;0.30;99.90
7920;DHT22;18778;47.610;9.776;2023-02-22T02:49:07;0.20;99.90
7920;DHT22;18778;47.610;9.776;2023-02-22T02:51:40;0.00;99.90
7920;DHT22;18778;47.610;9.776;2023-02-22T02:54:07;2.20;99.90
7920;DHT22;18778;47.610;9.776;2023-02-22T02:56:33;0.30;99.90
7920;DHT22;18778;47.610;9.776;2023-02-22T02:58:59;0.50;99.90
7920;DHT22;18778;47.610;9.776;2023-02-22T03:01:49;0.50;99.90
7920;DHT22;18778;47.610;9.776;2023-02-22T03:04:20;0.50;99.90
7920;DHT22;18778;47.610;9.776;2023-02-22T03:06:54;0.40;99.90
7920;DHT22;18778;47.610;9.776;2023-02-22T03:09:40;0.40;99.90
7920;DHT22;18778;47.610;9.776;2023-02-22T03:12:30;0.60;99.90
7920;DHT22;18778;47.610;9.776;2023-02-22T03:20:19;0.40;99.90
7920;DHT22;18778;47.610;9.776;2023-02-22T03:22:56;0.40;99.90
7920;DHT22;18778;47.610;9.776;2023-02-22T03:25:31;0.30;99.90
7920;DHT22;18778;47.610;9.776;2023-02-22T03:28:04;0.20;99.90
7920;DHT22;18778;47.610;9.776;2023-02-22T03:30:53;0.10;99.90
7920;DHT22;18778;47.610;9.776;2023-02-22T03:36:28;0.10;99.90
7920;DHT22;18778;47.610;9.776;2023-02-22T03:38:57;0.00;99.90
7920;DHT22;18778;47.610;9.776;2023-02-22T03:41:25;-0.10;99.90
7920;DHT22;18778;47.610;9.776;2023-02-22T03:44:02;0.00;99.90
7920;DHT22;18778;47.610;9.776;2023-02-22T03:46:29;0.10;99.90
7920;DHT22;18778;47.610;9.776;2023-02-22T03:49:04;0.20;99.90
7920;DHT22;18778;47.610;9.776;2023-02-22T03:51:33;0.20;99.90
7920;DHT22;18778;47.610;9.776;2023-02-22T03:53:59;0.20;99.90
7920;DHT22;18778;47.610;9.776;2023-02-22T03:56:27;0.20;99.90
7920;DHT22;18778;47.610;9.776;2023-02-22T03:59:01;0.30;99.90
7920;DHT22;18778;47.610;9.776;2023-02-22T04:01:27;0.30;99.90
7920;DHT22;18778;47.610;9.776;2023-02-22T04:03:52;0.20;99.90
7920;DHT22;18778;47.610;9.776;2023-02-22T04:06:18;0.10;99.90
7920;DHT22;18778;47.610;9.776;2023-02-22T04:08:44;0.30;99.90
7920;DHT22;18778;47.610;9.776;2023-02-22T04:11:09;0.10;99.90
7920;DHT22;18778;47.610;9.776;2023-02-22T04:13:35;0.10;99.90
7920;DHT22;18778;47.610;9.776;2023-02-22T04:16:00;0.00;99.90
7920;DHT22;18778;47.610;9.776;2023-02-22T04:18:26;0.00;99.90
7920;DHT22;18778;47.610;9.776;2023-02-22T04:20:51;-0.20;99.90
7920;DHT22;18778;47.610;9.776;2023-02-22T04:23:17;-0.30;99.90
7920;DHT22;18778;47.610;9.776;2023-02-22T04:25:42;-0.40;99.90
7920;DHT22;18778;47.610;9.776;2023-02-22T04:28:08;-0.40;99.90
7920;DHT22;18778;47.610;9.776;2023-02-22T04:30:33;-0.40;99.90
7920;DHT22;18778;47.610;9.776;2023-02-22T04:32:59;-0.20;99.90
7920;DHT22;18778;47.610;9.776;2023-02-22T04:35:24;-0.10;99.90
7920;DHT22;18778;47.610;9.776;2023-02-22T04:37:50;0.00;99.90
7920;DHT22;18778;47.610;9.776;2023-02-22T04:40:17;0.10;99.90
7920;DHT22;18778;47.610;9.776;2023-02-22T04:42:42;0.00;99.90
7920;DHT22;18778;47.610;9.776;2023-02-22T04:45:09;0.00;99.90
7920;DHT22;18778;47.610;9.776;2023-02-22T04:47:38;0.20;99.90
7920;DHT22;18778;47.610;9.776;2023-02-22T04:50:05;0.20;99.90
7920;DHT22;18778;47.610;9.776;2023-02-22T04:52:31;0.20;99.90
7920;DHT22;18778;47.610;9.776;2023-02-22T04:54:57;0.10;99.90
7920;DHT22;18778;47.610;9.776;2023-02-22T04:57:23;0.00;99.90
7920;DHT22;18778;47.610;9.776;2023-02-22T04:59:48;0.00;99.90
7920;DHT22;18778;47.610;9.776;2023-02-22T05:02:16;-0.10;99.90
7920;DHT22;18778;47.610;9.776;2023-02-22T05:04:41;-0.10;99.90
7920;DHT22;18778;47.610;9.776;2023-02-22T05:07:07;-0.10;99.90
7920;DHT22;18778;47.610;9.776;2023-02-22T05:09:32;-0.20;99.90
7920;DHT22;18778;47.610;9.776;2023-02-22T05:11:58;-0.20;99.90
7920;DHT22;18778;47.610;9.776;2023-02-22T05:14:23;-0.30;99.90
7920;DHT22;18778;47.610;9.776;2023-02-22T05:16:58;-0.30;99.90
7920;DHT22;18778;47.610;9.776;2023-02-22T05:19:24;-0.40;99.90
7920;DHT22;18778;47.610;9.776;2023-02-22T05:21:50;-0.30;99.90
7920;DHT22;18778;47.610;9.776;2023-02-22T05:24:15;-0.30;99.90
7920;DHT22;18778;47.610;9.776;2023-02-22T05:26:44;-0.30;99.90
7920;DHT22;18778;47.610;9.776;2023-02-22T05:29:11;-0.30;99.90
7920;DHT22;18778;47.610;9.776;2023-02-22T05:31:36;-0.40;99.90
7920;DHT22;18778;47.610;9.776;2023-02-22T05:34:02;-0.30;99.90
7920;DHT22;18778;47.610;9.776;2023-02-22T05:36:28;-0.30;99.90
7920;DHT22;18778;47.610;9.776;2023-02-22T05:38:54;-0.40;99.90
7920;DHT22;18778;47.610;9.776;2023-02-22T05:41:22;-0.60;99.90
7920;DHT22;18778;47.610;9.776;2023-02-22T05:43:49;-0.50;99.90
7920;DHT22;18778;47.610;9.776;2023-02-22T05:46:17;-0.50;99.90
7920;DHT22;18778;47.610;9.776;2023-02-22T05:48:43;-0.50;99.90
7920;DHT22;18778;47.610;9.776;2023-02-22T05:51:08;-0.50;99.90
7920;DHT22;18778;47.610;9.776;2023-02-22T05:53:35;-0.50;99.90
7920;DHT22;18778;47.610;9.776;2023-02-22T05:56:01;-0.50;99.90
7920;DHT22;18778;47.610;9.776;2023-02-22T05:58:27;-0.40;99.90
7920;DHT22;18778;47.610;9.776;2023-02-22T06:00:53;-0.40;99.90
7920;DHT22;18778;47.610;9.776;2023-02-22T06:03:18;-0.40;99.90
7920;DHT22;18778;47.610;9.776;2023-02-22T06:05:44;-0.40;99.90
7920;DHT22;18778;47.610;9.776;2023-02-22T06:08:10;-0.50;99.90
7920;DHT22;18778;47.610;9.776;2023-02-22T06:10:35;-0.30;99.90
7920;DHT22;18778;47.610;9.776;2023-02-22T06:13:02;-0.30;99.90
7920;DHT22;18778;47.610;9.776;2023-02-22T06:15:28;-0.30;99.90
7920;DHT22;18778;47.610;9.776;2023-02-22T06:17:54;-0.40;99.90
7920;DHT22;18778;47.610;9.776;2023-02-22T06:20:24;-0.30;99.90
7920;DHT22;18778;47.610;9.776;2023-02-22T06:22:51;-0.20;99.90
7920;DHT22;18778;47.610;9.776;2023-02-22T06:25:19;-0.30;99.90
7920;DHT22;18778;47.610;9.776;2023-02-22T06:27:45;-0.10;99.90
7920;DHT22;18778;47.610;9.776;2023-02-22T06:33:23;0.00;99.90
7920;DHT22;18778;47.610;9.776;2023-02-22T06:35:49;0.00;99.90
7920;DHT22;18778;47.610;9.776;2023-02-22T06:38:24;0.00;99.90
7920;DHT22;18778;47.610;9.776;2023-02-22T06:40:50;0.00;99.90
7920;DHT22;18778;47.610;9.776;2023-02-22T06:43:16;-0.10;99.90
7920;DHT22;18778;47.610;9.776;2023-02-22T06:45:42;0.10;99.90
7920;DHT22;18778;47.610;9.776;2023-02-22T06:48:08;0.20;99.90
7920;DHT22;18778;47.610;9.776;2023-02-22T06:50:33;0.20;99.90
7920;DHT22;18778;47.610;9.776;2023-02-22T06:52:59;0.30;99.90
7920;DHT22;18778;47.610;9.776;2023-02-22T06:55:27;0.30;99.90
7920;DHT22;18778;47.610;9.776;2023-02-22T06:57:53;0.40;99.90
7920;DHT22;18778;47.610;9.776;2023-02-22T07:00:20;0.40;99.90
7920;DHT22;18778;47.610;9.776;2023-02-22T07:02:46;0.50;99.90
7920;DHT22;18778;47.610;9.776;2023-02-22T07:05:17;0.70;99.90
7920;DHT22;18778;47.610;9.776;2023-02-22T07:07:43;0.80;99.90
7920;DHT22;18778;47.610;9.776;2023-02-22T07:10:16;0.90;99.90
7920;DHT22;18778;47.610;9.776;2023-02-22T07:12:42;1.10;99.90
7920;DHT22;18778;47.610;9.776;2023-02-22T07:15:08;1.00;99.90
7920;DHT22;18778;47.610;9.776;2023-02-22T07:17:35;1.10;99.90
7920;DHT22;18778;47.610;9.776;2023-02-22T07:20:00;1.20;99.90
7920;DHT22;18778;47.610;9.776;2023-02-22T07:22:26;1.20;99.90
7920;DHT22;18778;47.610;9.776;2023-02-22T07:24:51;1.30;99.90
7920;DHT22;18778;47.610;9.776;2023-02-22T07:27:17;1.40;99.90
7920;DHT22;18778;47.610;9.776;2023-02-22T07:29:43;1.50;99.90
7920;DHT22;18778;47.610;9.776;2023-02-22T07:32:08;1.60;99.90
7920;DHT22;18778;47.610;9.776;2023-02-22T07:34:34;1.70;99.90
7920;DHT22;18778;47.610;9.776;2023-02-22T07:37:00;1.80;99.90
7920;DHT22;18778;47.610;9.776;2023-02-22T07:39:25;3.40;99.90
7920;DHT22;18778;47.610;9.776;2023-02-22T07:41:51;1.80;99.90
7920;DHT22;18778;47.610;9.776;2023-02-22T07:44:17;1.70;99.90
7920;DHT22;18778;47.610;9.776;2023-02-22T07:46:46;1.80;99.90
7920;DHT22;18778;47.610;9.776;2023-02-22T07:49:12;2.00;99.90
7920;DHT22;18778;47.610;9.776;2023-02-22T07:51:38;2.10;99.90
7920;DHT22;18778;47.610;9.776;2023-02-22T07:54:03;2.20;99.90
7920;DHT22;18778;47.610;9.776;2023-02-22T07:56:29;2.40;99.90
7920;DHT22;18778;47.610;9.776;2023-02-22T07:58:55;2.50;99.90
7920;DHT22;18778;47.610;9.776;2023-02-22T08:01:20;2.70;99.90
7920;DHT22;18778;47.610;9.776;2023-02-22T08:03:46;2.90;99.90
7920;DHT22;18778;47.610;9.776;2023-02-22T08:06:12;3.10;99.90
7920;DHT22;18778;47.610;9.776;2023-02-22T08:08:37;3.20;99.90
7920;DHT22;18778;47.610;9.776;2023-02-22T08:11:03;3.30;99.90
7920;DHT22;18778;47.610;9.776;2023-02-22T08:13:29;3.40;99.90
7920;DHT22;18778;47.610;9.776;2023-02-22T08:15:55;3.50;99.90
7920;DHT22;18778;47.610;9.776;2023-02-22T08:18:21;3.70;99.90
7920;DHT22;18778;47.610;9.776;2023-02-22T08:20:49;3.90;99.90
7920;DHT22;18778;47.610;9.776;2023-02-22T08:23:15;5.20;99.90
7920;DHT22;18778;47.610;9.776;2023-02-22T08:25:42;4.10;99.90
7920;DHT22;18778;47.610;9.776;2023-02-22T08:28:10;4.40;99.90
7920;DHT22;18778;47.610;9.776;2023-02-22T08:30:37;6.60;99.90
7920;DHT22;18778;47.610;9.776;2023-02-22T08:33:03;4.70;99.90
7920;DHT22;18778;47.610;9.776;2023-02-22T08:35:31;4.70;99.90
7920;DHT22;18778;47.610;9.776;2023-02-22T08:38:03;4.50;99.90
7920;DHT22;18778;47.610;9.776;2023-02-22T08:40:35;4.60;99.90
7920;DHT22;18778;47.610;9.776;2023-02-22T08:43:02;4.90;99.90
7920;DHT22;18778;47.610;9.776;2023-02-22T08:45:28;4.80;99.90
7920;DHT22;18778;47.610;9.776;2023-02-22T08:47:53;5.00;99.90
7920;DHT22;18778;47.610;9.776;2023-02-22T08:50:25;5.10;99.90
7920;DHT22;18778;47.610;9.776;2023-02-22T08:52:52;5.20;99.90
7920;DHT22;18778;47.610;9.776;2023-02-22T08:55:22;5.50;99.90
7920;DHT22;18778;47.610;9.776;2023-02-22T08:57:48;5.60;99.90
7920;DHT22;18778;47.610;9.776;2023-02-22T09:00:16;5.80;99.90
7920;DHT22;18778;47.610;9.776;2023-02-22T09:02:41;6.30;99.90
7920;DHT22;18778;47.610;9.776;2023-02-22T09:05:08;6.20;99.90
7920;DHT22;18778;47.610;9.776;2023-02-22T09:07:33;9.70;99.90
7920;DHT22;18778;47.610;9.776;2023-02-22T09:09:59;7.00;99.90
7920;DHT22;18778;47.610;9.776;2023-02-22T09:12:24;7.30;99.50
7920;DHT22;18778;47.610;9.776;2023-02-22T09:14:50;7.60;99.60
7920;DHT22;18778;47.610;9.776;2023-02-22T09:17:15;7.90;98.70
7920;DHT22;18778;47.610;9.776;2023-02-22T09:19:41;8.20;97.30
7920;DHT22;18778;47.610;9.776;2023-02-22T09:22:06;8.20;96.70
7920;DHT22;18778;47.610;9.776;2023-02-22T09:24:32;8.50;97.50
7920;DHT22;18778;47.610;9.776;2023-02-22T09:26:58;8.40;97.60
7920;DHT22;18778;47.610;9.776;2023-02-22T09:29:25;11.20;96.30
7920;DHT22;18778;47.610;9.776;2023-02-22T09:31:53;9.10;94.10
7920;DHT22;18778;47.610;9.776;2023-02-22T09:34:20;9.70;94.30
7920;DHT22;18778;47.610;9.776;2023-02-22T09:36:47;11.40;94.40
7920;DHT22;18778;47.610;9.776;2023-02-22T09:39:14;10.10;93.80
7920;DHT22;18778;47.610;9.776;2023-02-22T09:42:03;10.10;92.90
7920;DHT22;18778;47.610;9.776;2023-02-22T09:47:31;10.60;93.30
7920;DHT22;18778;47.610;9.776;2023-02-22T09:50:17;10.60;93.10
7920;DHT22;18778;47.610;9.776;2023-02-22T09:52:57;10.80;92.70
7920;DHT22;18778;47.610;9.776;2023-02-22T09:55:30;10.90;93.70
7920;DHT22;18778;47.610;9.776;2023-02-22T09:58:02;11.10;92.50
7920;DHT22;18778;47.610;9.776;2023-02-22T10:00:31;11.10;92.20
7920;DHT22;18778;47.610;9.776;2023-02-22T10:03:23;11.00;91.70
7920;DHT22;18778;47.610;9.776;2023-02-22T10:06:09;11.10;92.00
7920;DHT22;18778;47.610;9.776;2023-02-22T10:08:36;11.10;91.80
7920;DHT22;18778;47.610;9.776;2023-02-22T10:14:09;11.40;91.70
7920;DHT22;18778;47.610;9.776;2023-02-22T10:22:20;11.90;91.30
7920;DHT22;18778;47.610;9.776;2023-02-22T10:27:33;13.50;91.00
7920;DHT22;18778;47.610;9.776;2023-02-22T10:30:21;13.70;91.20
7920;DHT22;18778;47.610;9.776;2023-02-22T10:32:54;12.00;90.30
7920;DHT22;18778;47.610;9.776;2023-02-22T10:35:27;12.00;90.00
7920;DHT22;18778;47.610;9.776;2023-02-22T10:38:05;12.20;87.20
7920;DHT22;18778;47.610;9.776;2023-02-22T10:40:36;12.50;86.70
7920;DHT22;18778;47.610;9.776;2023-02-22T10:43:05;12.60;85.00
7920;DHT22;18778;47.610;9.776;2023-02-22T10:45:33;12.00;84.80
7920;DHT22;18778;47.610;9.776;2023-02-22T10:48:02;12.90;88.50
7920;DHT22;18778;47.610;9.776;2023-02-22T10:50:34;12.60;88.30
7920;DHT22;18778;47.610;9.776;2023-02-22T10:53:01;12.80;88.50
7920;DHT22;18778;47.610;9.776;2023-02-22T10:55:27;12.70;88.90
7920;DHT22;18778;47.610;9.776;2023-02-22T10:57:59;12.70;88.30
7920;DHT22;18778;47.610;9.776;2023-02-22T11:00:36;13.00;88.10
7920;DHT22;18778;47.610;9.776;2023-02-22T11:03:21;13.50;88.20
7920;DHT22;18778;47.610;9.776;2023-02-22T11:05:47;13.70;87.90
7920;DHT22;18778;47.610;9.776;2023-02-22T11:10:45;14.70;84.90
7920;DHT22;18778;47.610;9.776;2023-02-22T11:15:57;14.60;83.70
7920;DHT22;18778;47.610;9.776;2023-02-22T11:18:31;13.80;82.00
7920;DHT22;18778;47.610;9.776;2023-02-22T11:21:09;13.30;84.50
7920;DHT22;18778;47.610;9.776;2023-02-22T11:23:38;13.80;88.50
7920;DHT22;18778;47.610;9.776;2023-02-22T11:26:12;12.10;84.40
7920;DHT22;18778;47.610;9.776;2023-02-22T11:28:44;13.40;85.10
7920;DHT22;18778;47.610;9.776;2023-02-22T11:31:24;13.00;85.80
7920;DHT22;18778;47.610;9.776;2023-02-22T11:33:59;13.10;87.60
7920;DHT22;18778;47.610;9.776;2023-02-22T11:36:40;14.50;89.80
7920;DHT22;18778;47.610;9.776;2023-02-22T11:39:42;14.10;87.60
7920;DHT22;18778;47.610;9.776;2023-02-22T11:42:28;14.80;79.70
7920;DHT22;18778;47.610;9.776;2023-02-22T11:45:29;15.20;80.80
7920;DHT22;18778;47.610;9.776;2023-02-22T11:47:59;15.60;78.40
7920;DHT22;18778;47.610;9.776;2023-02-22T11:50:29;15.60;78.80
7920;DHT22;18778;47.610;9.776;2023-02-22T11:53:11;16.20;81.40
7920;DHT22;18778;47.610;9.776;2023-02-22T11:56:10;17.00;81.50
7920;DHT22;18778;47.610;9.776;2023-02-22T11:58:55;17.40;78.30
7920;DHT22;18778;47.610;9.776;2023-02-22T12:04:19;18.00;70.60
7920;DHT22;18778;47.610;9.776;2023-02-22T12:07:28;17.80;71.10
7920;DHT22;18778;47.610;9.776;2023-02-22T12:16:07;17.80;75.60
7920;DHT22;18778;47.610;9.776;2023-02-22T12:21:46;17.90;78.60
7920;DHT22;18778;47.610;9.776;2023-02-22T12:24:16;16.70;74.30
7920;DHT22;18778;47.610;9.776;2023-02-22T12:26:45;18.40;76.20
7920;DHT22;18778;47.610;9.776;2023-02-22T12:31:55;17.70;77.00
7920;DHT22;18778;47.610;9.776;2023-02-22T12:34:42;17.50;77.70
7920;DHT22;18778;47.610;9.776;2023-02-22T12:40:18;16.90;78.30
7920;DHT22;18778;47.610;9.776;2023-02-22T12:45:35;16.50;78.40
7920;DHT22;18778;47.610;9.776;2023-02-22T12:48:26;16.40;80.90
7920;DHT22;18778;47.610;9.776;2023-02-22T12:56:50;16.30;79.70
7920;DHT22;18778;47.610;9.776;2023-02-22T12:59:36;15.70;80.20
7920;DHT22;18778;47.610;9.776;2023-02-22T13:02:13;15.40;82.70
7920;DHT22;18778;47.610;9.776;2023-02-22T13:04:39;15.40;81.80
7920;DHT22;18778;47.610;9.776;2023-02-22T13:07:33;15.40;81.40
7920;DHT22;18778;47.610;9.776;2023-02-22T13:13:47;15.70;80.50
7920;DHT22;18778;47.610;9.776;2023-02-22T13:16:08;16.60;81.50
7920;DHT22;18778;47.610;9.776;2023-02-22T13:18:46;16.80;81.00
7920;DHT22;18778;47.610;9.776;2023-02-22T13:21:22;17.30;80.40
7920;DHT22;18778;47.610;9.776;2023-02-22T13:26:43;18.40;80.90
7920;DHT22;18778;47.610;9.776;2023-02-22T13:29:21;18.40;76.60
7920;DHT22;18778;47.610;9.776;2023-02-22T13:32:14;18.40;76.90
7920;DHT22;18778;47.610;9.776;2023-02-22T13:37:37;18.30;77.20
7920;DHT22;18778;47.610;9.776;2023-02-22T13:43:35;18.90;75.90
7920;DHT22;18778;47.610;9.776;2023-02-22T13:51:48;19.10;74.50
7920;DHT22;18778;47.610;9.776;2023-02-22T13:54:40;19.30;74.90
7920;DHT22;18778;47.610;9.776;2023-02-22T13:57:23;19.00;75.10
7920;DHT22;18778;47.610;9.776;2023-02-22T14:10:55;19.30;76.10
7920;DHT22;18778;47.610;9.776;2023-02-22T15:32:40;14.80;86.60
7920;DHT22;18778;47.610;9.776;2023-02-22T15:35:15;14.60;87.90
7920;DHT22;18778;47.610;9.776;2023-02-22T15:37:45;14.60;87.30
7920;DHT22;18778;47.610;9.776;2023-02-22T15:40:14;16.80;89.60
7920;DHT22;18778;47.610;9.776;2023-02-22T15:42:47;13.40;87.30
7920;DHT22;18778;47.610;9.776;2023-02-22T15:45:19;16.90;90.10
7920;DHT22;18778;47.610;9.776;2023-02-22T15:47:47;14.60;84.70
